createdAt,value
2023-05-05T00:01:02.635Z,14.10
2023-05-05T00:03:30.044Z,14.10
2023-05-05T00:05:57.890Z,14.00
2023-05-05T00:08:24.995Z,14.00
2023-05-05T00:10:53.089Z,14.00
2023-05-05T00:13:20.791Z,14.00
2023-05-05T00:15:49.298Z,14.00
2023-05-05T00:18:17.316Z,14.00
2023-05-05T00:20:45.032Z,14.00
2023-05-05T00:23:12.098Z,14.00
2023-05-05T00:25:39.400Z,14.00
2023-05-05T00:28:06.499Z,14.00
2023-05-05T00:30:34.246Z,14.00
2023-05-05T00:33:01.860Z,13.90
2023-05-05T00:35:29.387Z,13.90
2023-05-05T00:37:56.581Z,13.90
2023-05-05T00:40:23.864Z,13.90
2023-05-05T00:42:51.184Z,13.90
2023-05-05T00:45:20.013Z,13.80
2023-05-05T00:47:52.470Z,13.80
2023-05-05T00:50:30.108Z,13.80
2023-05-05T00:53:01.014Z,13.70
2023-05-05T00:55:32.198Z,13.70
2023-05-05T00:57:59.823Z,13.70
2023-05-05T01:00:27.590Z,13.70
2023-05-05T01:02:55.443Z,13.70
2023-05-05T01:05:24.080Z,13.70
2023-05-05T01:07:52.577Z,13.60
2023-05-05T01:10:23.140Z,13.60
2023-05-05T01:12:50.654Z,13.50
2023-05-05T01:15:21.720Z,13.40
2023-05-05T01:17:56.245Z,13.40
2023-05-05T01:20:34.003Z,13.40
2023-05-05T01:23:04.501Z,13.30
2023-05-05T01:25:58.536Z,13.30
2023-05-05T01:28:39.597Z,13.20
2023-05-05T01:31:10.042Z,13.20
2023-05-05T01:33:41.636Z,13.10
2023-05-05T01:36:12.600Z,13.10
2023-05-05T01:38:41.982Z,13.00
2023-05-05T01:41:17.691Z,12.90
2023-05-05T01:43:46.785Z,12.90
2023-05-05T01:46:14.734Z,12.80
2023-05-05T01:48:43.200Z,12.80
2023-05-05T01:51:11.112Z,12.70
2023-05-05T01:53:39.586Z,12.70
2023-05-05T01:56:08.696Z,12.60
2023-05-05T01:58:36.465Z,12.70
2023-05-05T02:01:04.262Z,12.60
2023-05-05T02:03:32.417Z,12.60
2023-05-05T02:06:00.945Z,12.50
2023-05-05T02:08:29.752Z,12.60
2023-05-05T02:10:59.480Z,12.50
2023-05-05T02:13:27.917Z,12.50
2023-05-05T02:15:55.562Z,12.40
2023-05-05T02:18:23.060Z,12.40
2023-05-05T02:20:51.220Z,12.40
2023-05-05T02:23:18.655Z,12.40
2023-05-05T02:25:54.850Z,12.40
2023-05-05T02:28:24.954Z,12.30
2023-05-05T02:30:56.362Z,12.20
2023-05-05T02:33:24.646Z,12.20
2023-05-05T02:35:52.669Z,12.20
2023-05-05T02:38:22.867Z,12.10
2023-05-05T02:40:51.834Z,12.10
2023-05-05T02:43:21.182Z,12.20
2023-05-05T02:45:48.458Z,12.20
2023-05-05T02:48:15.812Z,12.20
2023-05-05T02:50:44.121Z,12.20
2023-05-05T02:53:14.652Z,12.10
2023-05-05T02:55:46.384Z,12.20
2023-05-05T02:58:22.914Z,12.20
2023-05-05T03:00:55.868Z,12.20
2023-05-05T03:03:31.813Z,12.10
2023-05-05T03:06:16.625Z,12.10
2023-05-05T03:09:00.960Z,12.10
2023-05-05T03:11:31.583Z,12.10
2023-05-05T03:14:05.053Z,12.10
2023-05-05T03:16:35.100Z,12.00
2023-05-05T03:19:04.360Z,12.00
2023-05-05T03:21:32.920Z,12.00
2023-05-05T03:24:00.451Z,12.00
2023-05-05T03:26:27.833Z,11.90
2023-05-05T03:28:54.952Z,11.90
2023-05-05T03:31:21.941Z,11.90
2023-05-05T03:33:48.971Z,11.90
2023-05-05T03:36:16.138Z,12.00
2023-05-05T03:38:43.335Z,12.00
2023-05-05T03:41:11.199Z,12.00
2023-05-05T03:43:39.891Z,11.90
2023-05-05T03:46:07.254Z,11.80
2023-05-05T03:48:34.913Z,11.80
2023-05-05T03:51:02.403Z,11.70
2023-05-05T03:53:29.583Z,11.70
2023-05-05T03:55:57.813Z,11.60
2023-05-05T03:58:24.983Z,11.60
2023-05-05T04:00:51.992Z,11.50
2023-05-05T04:03:19.655Z,11.50
2023-05-05T04:05:47.734Z,11.50
2023-05-05T04:08:14.811Z,11.50
2023-05-05T04:10:41.766Z,11.50
2023-05-05T04:13:09.307Z,11.60
2023-05-05T04:15:36.737Z,11.60
2023-05-05T04:18:04.054Z,11.60
2023-05-05T04:20:35.129Z,11.60
2023-05-05T04:23:02.338Z,11.60
2023-05-05T04:25:30.136Z,11.70
2023-05-05T04:27:57.016Z,11.60
2023-05-05T04:30:24.199Z,11.70
2023-05-05T04:32:51.386Z,11.70
2023-05-05T04:35:18.545Z,11.70
2023-05-05T04:37:45.653Z,11.70
2023-05-05T04:40:13.151Z,11.70
2023-05-05T04:42:40.604Z,11.80
2023-05-05T04:45:11.700Z,11.80
2023-05-05T04:47:42.467Z,11.90
2023-05-05T04:50:10.510Z,11.90
2023-05-05T04:52:38.134Z,12.00
2023-05-05T04:55:06.415Z,12.10
2023-05-05T04:57:34.134Z,12.10
2023-05-05T05:00:01.480Z,12.20
2023-05-05T05:02:29.607Z,12.30
2023-05-05T05:04:56.823Z,12.40
2023-05-05T05:07:26.509Z,12.50
2023-05-05T05:09:53.543Z,12.60
2023-05-05T05:12:25.390Z,12.70
2023-05-05T05:14:52.401Z,12.70
2023-05-05T05:17:20.211Z,12.80
2023-05-05T05:19:47.651Z,12.80
2023-05-05T05:22:14.912Z,12.90
2023-05-05T05:24:41.980Z,12.90
2023-05-05T05:27:10.283Z,12.90
2023-05-05T05:29:37.697Z,13.00
2023-05-05T05:32:04.882Z,13.00
2023-05-05T05:34:32.444Z,13.10
2023-05-05T05:37:00.032Z,13.20
2023-05-05T05:39:27.208Z,13.20
2023-05-05T05:41:54.337Z,13.30
2023-05-05T05:44:22.055Z,13.30
2023-05-05T05:46:51.229Z,13.40
2023-05-05T05:49:18.523Z,13.40
2023-05-05T05:51:46.343Z,13.40
2023-05-05T05:54:13.468Z,13.50
2023-05-05T05:56:41.041Z,13.50
2023-05-05T05:59:10.440Z,13.60
2023-05-05T06:01:37.467Z,13.60
2023-05-05T06:04:04.734Z,13.60
2023-05-05T06:06:31.997Z,13.70
2023-05-05T06:08:59.326Z,13.80
2023-05-05T06:11:26.880Z,13.90
2023-05-05T06:13:53.850Z,13.90
2023-05-05T06:16:21.708Z,14.00
2023-05-05T06:18:48.845Z,14.00
2023-05-05T06:21:15.961Z,14.10
2023-05-05T06:23:43.094Z,14.10
2023-05-05T06:26:10.127Z,14.10
2023-05-05T06:28:38.065Z,14.20
2023-05-05T06:31:05.347Z,14.20
2023-05-05T06:33:32.580Z,14.20
2023-05-05T06:36:00.024Z,14.20
2023-05-05T06:38:27.531Z,14.20
2023-05-05T06:40:54.566Z,14.30
2023-05-05T06:43:22.278Z,14.30
2023-05-05T06:45:49.707Z,14.40
2023-05-05T06:48:17.036Z,14.40
2023-05-05T06:50:44.390Z,14.50
2023-05-05T06:53:11.672Z,14.50
2023-05-05T06:55:39.097Z,14.60
2023-05-05T06:58:06.824Z,14.60
2023-05-05T07:00:33.880Z,14.60
2023-05-05T07:03:01.050Z,14.70
2023-05-05T07:05:28.137Z,14.80
2023-05-05T07:07:55.393Z,14.80
2023-05-05T07:10:23.885Z,14.90
2023-05-05T07:12:52.760Z,15.00
2023-05-05T07:15:28.758Z,15.00
2023-05-05T07:17:57.216Z,15.10
2023-05-05T07:20:24.796Z,15.20
2023-05-05T07:22:51.953Z,15.20
2023-05-05T07:25:19.157Z,15.30
2023-05-05T07:27:46.630Z,15.30
2023-05-05T07:30:18.158Z,15.30
2023-05-05T07:32:46.415Z,15.40
2023-05-05T07:35:13.972Z,15.50
2023-05-05T07:37:44.749Z,15.50
2023-05-05T07:40:12.218Z,15.50
2023-05-05T07:42:39.216Z,15.60
2023-05-05T07:45:07.206Z,15.70
2023-05-05T07:47:34.699Z,15.70
2023-05-05T07:50:01.850Z,15.80
2023-05-05T07:52:44.143Z,15.80
2023-05-05T07:55:13.825Z,15.90
2023-05-05T07:57:42.015Z,16.00
2023-05-05T08:00:11.686Z,16.10
2023-05-05T08:02:41.350Z,16.20
2023-05-05T08:05:09.477Z,16.20
2023-05-05T08:07:41.353Z,16.30
2023-05-05T08:10:13.686Z,16.40
2023-05-05T08:12:41.438Z,16.40
2023-05-05T08:15:09.198Z,16.50
2023-05-05T08:17:47.437Z,16.60
2023-05-05T08:20:15.329Z,16.60
2023-05-05T08:22:44.552Z,16.70
2023-05-05T08:25:11.995Z,16.70
2023-05-05T08:27:40.211Z,16.70
2023-05-05T08:30:08.179Z,16.80
2023-05-05T08:32:35.440Z,16.90
2023-05-05T08:35:03.660Z,17.00
2023-05-05T08:37:31.234Z,17.00
2023-05-05T08:39:58.551Z,17.10
2023-05-05T08:42:37.122Z,17.10
2023-05-05T08:45:06.883Z,17.20
2023-05-05T08:47:34.678Z,17.30
2023-05-05T08:50:02.314Z,17.40
2023-05-05T08:52:33.347Z,17.40
2023-05-05T08:55:03.363Z,17.50
2023-05-05T08:57:42.950Z,17.60
2023-05-05T09:00:11.389Z,17.60
2023-05-05T09:02:40.080Z,17.80
2023-05-05T09:05:11.351Z,17.90
2023-05-05T09:07:41.469Z,18.00
2023-05-05T09:10:09.523Z,18.00
2023-05-05T09:12:36.799Z,18.10
2023-05-05T09:15:04.345Z,18.30
2023-05-05T09:17:32.050Z,18.40
2023-05-05T09:20:07.660Z,18.50
2023-05-05T09:22:36.005Z,18.60
2023-05-05T09:25:04.036Z,18.70
2023-05-05T09:27:31.325Z,18.90
2023-05-05T09:29:58.296Z,19.00
2023-05-05T09:32:25.557Z,19.20
2023-05-05T09:35:00.280Z,19.30
2023-05-05T09:37:28.552Z,19.50
2023-05-05T09:39:56.227Z,19.60
2023-05-05T09:42:23.589Z,19.80
2023-05-05T09:44:52.013Z,20.10
2023-05-05T09:47:29.361Z,20.40
2023-05-05T09:49:58.969Z,20.70
2023-05-05T09:52:25.960Z,21.00
2023-05-05T09:54:57.353Z,21.30
2023-05-05T09:57:29.202Z,21.60
2023-05-05T10:00:00.368Z,21.90
2023-05-05T10:02:38.423Z,22.00
2023-05-05T10:05:07.388Z,22.20
2023-05-05T10:07:35.275Z,22.50
2023-05-05T10:10:03.851Z,22.70
2023-05-05T10:12:31.627Z,22.90
2023-05-05T10:14:59.979Z,23.20
2023-05-05T10:17:28.794Z,23.40
2023-05-05T10:20:00.137Z,23.50
2023-05-05T10:22:30.317Z,23.70
2023-05-05T10:25:09.690Z,23.80
2023-05-05T10:27:43.981Z,23.80
2023-05-05T10:30:17.549Z,24.00
2023-05-05T10:32:59.324Z,24.10
2023-05-05T10:35:33.215Z,24.10
2023-05-05T10:38:00.639Z,24.20
2023-05-05T10:40:30.594Z,24.40
2023-05-05T10:42:58.621Z,24.50
2023-05-05T10:45:25.962Z,24.70
2023-05-05T10:47:54.305Z,24.70
2023-05-05T10:50:27.563Z,24.80
2023-05-05T10:53:13.352Z,24.90
2023-05-05T10:55:54.590Z,25.10
2023-05-05T10:58:51.077Z,25.20
2023-05-05T11:01:32.522Z,25.20
2023-05-05T11:04:18.612Z,25.30
2023-05-05T11:07:04.913Z,25.40
2023-05-05T11:09:32.142Z,25.50
2023-05-05T11:12:03.469Z,25.70
2023-05-05T11:14:32.981Z,25.80
2023-05-05T11:17:00.227Z,25.80
2023-05-05T11:19:56.980Z,25.80
2023-05-05T11:22:24.270Z,25.80
2023-05-05T11:24:51.452Z,25.90
2023-05-05T11:27:19.136Z,25.90
2023-05-05T11:30:04.146Z,25.80
2023-05-05T11:32:31.205Z,25.70
2023-05-05T11:34:58.381Z,25.70
2023-05-05T11:37:27.916Z,25.80
2023-05-05T11:40:03.070Z,25.80
2023-05-05T11:42:31.803Z,26.00
2023-05-05T11:44:59.910Z,26.10
2023-05-05T11:47:27.998Z,26.20
2023-05-05T11:49:56.295Z,26.20
2023-05-05T11:52:24.682Z,26.20
2023-05-05T11:54:51.801Z,26.30
2023-05-05T11:57:22.404Z,26.40
2023-05-05T12:00:03.244Z,26.40
2023-05-05T12:02:31.696Z,26.50
2023-05-05T12:04:59.545Z,26.60
2023-05-05T12:07:28.313Z,26.70
2023-05-05T12:09:55.465Z,26.80
2023-05-05T12:12:33.426Z,26.90
2023-05-05T12:15:02.585Z,27.00
2023-05-05T12:17:37.254Z,27.10
2023-05-05T12:20:07.453Z,27.10
2023-05-05T12:22:38.001Z,27.00
2023-05-05T12:25:06.810Z,27.00
2023-05-05T12:27:35.560Z,27.00
2023-05-05T12:30:24.536Z,27.00
2023-05-05T12:33:02.239Z,27.00
2023-05-05T12:35:30.270Z,27.10
2023-05-05T12:37:58.761Z,27.00
2023-05-05T12:40:45.793Z,27.00
2023-05-05T12:43:29.303Z,27.10
2023-05-05T12:46:04.099Z,27.20
2023-05-05T12:48:31.849Z,27.30
2023-05-05T12:51:12.732Z,27.40
2023-05-05T12:53:40.231Z,27.40
2023-05-05T12:56:07.703Z,27.40
2023-05-05T12:58:48.972Z,27.40
2023-05-05T13:01:16.664Z,27.40
2023-05-05T13:03:44.553Z,27.40
2023-05-05T13:06:22.466Z,27.40
2023-05-05T13:08:49.596Z,27.50
2023-05-05T13:11:17.340Z,27.60
2023-05-05T13:13:47.535Z,27.60
2023-05-05T13:16:14.802Z,27.60
2023-05-05T13:18:49.906Z,27.60
2023-05-05T13:21:17.154Z,27.60
2023-05-05T13:23:44.683Z,27.60
2023-05-05T13:26:12.710Z,27.60
2023-05-05T13:28:40.103Z,27.60
2023-05-05T13:31:07.980Z,27.50
2023-05-05T13:33:36.441Z,27.50
2023-05-05T13:36:03.817Z,27.50
2023-05-05T13:38:33.806Z,27.50
2023-05-05T13:41:01.247Z,27.40
2023-05-05T13:43:28.665Z,27.40
2023-05-05T13:46:05.687Z,27.40
2023-05-05T13:48:36.355Z,27.30
2023-05-05T13:51:03.459Z,27.20
2023-05-05T13:53:32.221Z,27.10
2023-05-05T13:56:00.756Z,26.90
2023-05-05T13:58:27.970Z,26.80
2023-05-05T14:00:56.084Z,26.80
2023-05-05T14:03:24.198Z,26.80
2023-05-05T14:05:51.279Z,26.80
2023-05-05T14:08:21.148Z,26.70
2023-05-05T14:10:50.116Z,26.70
2023-05-05T14:13:19.131Z,26.50
2023-05-05T14:15:54.280Z,26.40
2023-05-05T14:18:21.809Z,26.30
2023-05-05T14:20:49.647Z,26.20
2023-05-05T14:23:19.250Z,26.20
2023-05-05T14:25:46.576Z,26.20
2023-05-05T14:28:13.537Z,26.20
2023-05-05T14:30:40.591Z,26.20
2023-05-05T14:33:11.422Z,26.20
2023-05-05T14:35:38.589Z,26.20
2023-05-05T14:38:05.834Z,26.20
2023-05-05T14:40:33.039Z,26.20
2023-05-05T14:43:00.840Z,26.10
2023-05-05T14:45:30.178Z,26.00
2023-05-05T14:47:57.973Z,25.80
2023-05-05T14:50:24.984Z,25.80
2023-05-05T14:52:52.352Z,25.70
2023-05-05T14:55:22.527Z,25.60
2023-05-05T14:57:49.626Z,25.50
2023-05-05T15:00:17.148Z,25.40
2023-05-05T15:02:44.168Z,25.30
2023-05-05T15:05:11.806Z,25.20
2023-05-05T15:07:40.787Z,25.10
2023-05-05T15:10:08.222Z,25.00
2023-05-05T15:12:35.479Z,25.00
2023-05-05T15:15:02.851Z,24.90
2023-05-05T15:17:31.714Z,24.80
2023-05-05T15:19:59.051Z,24.70
2023-05-05T15:22:26.499Z,24.70
2023-05-05T15:24:53.777Z,24.60
2023-05-05T15:27:21.408Z,24.60
2023-05-05T15:29:50.985Z,24.50
2023-05-05T15:32:21.028Z,24.50
2023-05-05T15:34:51.549Z,24.40
2023-05-05T15:37:18.835Z,24.40
2023-05-05T15:39:46.089Z,24.30
2023-05-05T15:42:15.066Z,24.30
2023-05-05T15:44:42.335Z,24.20
2023-05-05T15:47:11.659Z,24.10
2023-05-05T15:49:39.823Z,24.00
2023-05-05T15:52:07.265Z,24.00
2023-05-05T15:54:40.578Z,23.90
2023-05-05T15:57:11.639Z,23.80
2023-05-05T15:59:42.181Z,23.70
2023-05-05T16:02:10.341Z,23.70
2023-05-05T16:04:37.392Z,23.60
2023-05-05T16:07:04.741Z,23.50
2023-05-05T16:09:31.760Z,23.50
2023-05-05T16:11:58.780Z,23.40
2023-05-05T16:14:28.333Z,23.40
2023-05-05T16:16:55.715Z,23.30
2023-05-05T16:19:24.399Z,23.30
2023-05-05T16:21:51.611Z,23.20
2023-05-05T16:24:18.715Z,23.20
2023-05-05T16:26:46.330Z,23.10
2023-05-05T16:29:13.785Z,23.10
2023-05-05T16:31:41.033Z,23.10
2023-05-05T16:34:08.319Z,23.00
2023-05-05T16:36:35.629Z,23.00
2023-05-05T16:39:02.910Z,22.90
2023-05-05T16:41:30.230Z,22.90
2023-05-05T16:43:57.370Z,22.80
2023-05-05T16:46:24.430Z,22.80
2023-05-05T16:48:51.622Z,22.70
2023-05-05T16:51:19.074Z,22.70
2023-05-05T16:53:48.787Z,22.60
2023-05-05T16:56:18.112Z,22.60
2023-05-05T16:58:45.229Z,22.50
2023-05-05T17:01:12.313Z,22.50
2023-05-05T17:03:42.422Z,22.50
2023-05-05T17:06:10.355Z,22.40
2023-05-05T17:08:37.427Z,22.40
2023-05-05T17:11:04.754Z,22.40
2023-05-05T17:13:32.572Z,22.40
2023-05-05T17:15:59.777Z,22.30
2023-05-05T17:18:26.933Z,22.30
2023-05-05T17:20:54.489Z,22.20
2023-05-05T17:23:21.637Z,22.20
2023-05-05T17:25:48.748Z,22.10
2023-05-05T17:28:17.610Z,22.10
2023-05-05T17:30:44.975Z,22.10
2023-05-05T17:33:12.222Z,22.00
2023-05-05T17:35:39.342Z,22.00
2023-05-05T17:38:06.983Z,22.00
2023-05-05T17:40:33.940Z,21.90
2023-05-05T17:43:01.181Z,21.90
2023-05-05T17:45:28.335Z,21.80
2023-05-05T17:47:55.944Z,21.80
2023-05-05T17:50:23.371Z,21.70
2023-05-05T17:52:50.869Z,21.60
2023-05-05T17:55:21.056Z,21.60
2023-05-05T17:57:50.612Z,21.50
2023-05-05T18:00:20.701Z,21.50
2023-05-05T18:02:53.007Z,21.40
2023-05-05T18:05:20.356Z,21.40
2023-05-05T18:07:47.638Z,21.30
2023-05-05T18:10:15.075Z,21.30
2023-05-05T18:12:42.207Z,21.20
2023-05-05T18:15:09.806Z,21.20
2023-05-05T18:17:37.840Z,21.10
2023-05-05T18:20:07.537Z,21.10
2023-05-05T18:22:35.137Z,21.00
2023-05-05T18:25:02.399Z,21.00
2023-05-05T18:27:30.021Z,20.90
2023-05-05T18:29:57.067Z,20.90
2023-05-05T18:32:27.558Z,20.80
2023-05-05T18:34:54.868Z,20.80
2023-05-05T18:37:21.971Z,20.80
2023-05-05T18:39:49.502Z,20.70
2023-05-05T18:42:19.317Z,20.70
2023-05-05T18:44:46.513Z,20.70
2023-05-05T18:47:13.486Z,20.60
2023-05-05T18:49:40.534Z,20.60
2023-05-05T18:52:07.893Z,20.60
2023-05-05T18:54:37.501Z,20.50
2023-05-05T18:57:05.376Z,20.50
2023-05-05T18:59:32.813Z,20.40
2023-05-05T19:02:00.063Z,20.40
2023-05-05T19:04:31.723Z,20.40
2023-05-05T19:07:00.299Z,20.40
2023-05-05T19:09:27.642Z,20.30
2023-05-05T19:11:54.829Z,20.30
2023-05-05T19:14:23.084Z,20.30
2023-05-05T19:16:50.957Z,20.20
2023-05-05T19:19:18.738Z,20.20
2023-05-05T19:21:46.427Z,20.20
2023-05-05T19:24:13.415Z,20.10
2023-05-05T19:26:41.000Z,20.10
2023-05-05T19:29:08.294Z,20.10
2023-05-05T19:31:36.409Z,20.00
2023-05-05T19:34:05.169Z,20.00
2023-05-05T19:36:32.684Z,20.00
2023-05-05T19:39:03.653Z,19.90
2023-05-05T19:41:31.575Z,19.90
2023-05-05T19:43:58.990Z,19.80
2023-05-05T19:46:29.307Z,19.80
2023-05-05T19:48:57.165Z,19.80
2023-05-05T19:51:24.384Z,19.80
2023-05-05T19:53:51.554Z,19.70
2023-05-05T19:56:18.777Z,19.70
2023-05-05T19:59:02.310Z,19.70
2023-05-05T20:01:30.282Z,19.70
2023-05-05T20:03:57.678Z,19.60
2023-05-05T20:06:28.369Z,19.60
2023-05-05T20:08:56.028Z,19.60
2023-05-05T20:11:23.669Z,19.60
2023-05-05T20:13:52.146Z,19.60
2023-05-05T20:16:19.399Z,19.60
2023-05-05T20:18:48.694Z,19.60
2023-05-05T20:21:16.945Z,19.50
2023-05-05T20:23:45.655Z,19.50
2023-05-05T20:26:12.850Z,19.50
2023-05-05T20:28:41.877Z,19.50
2023-05-05T20:31:13.755Z,19.50
2023-05-05T20:33:41.020Z,19.50
2023-05-05T20:36:08.870Z,19.50
2023-05-05T20:38:36.097Z,19.50
2023-05-05T20:41:03.178Z,19.50
2023-05-05T20:43:30.284Z,19.50
2023-05-05T20:45:57.634Z,19.40
2023-05-05T20:48:25.192Z,19.40
2023-05-05T20:50:52.546Z,19.30
2023-05-05T20:53:21.247Z,19.30
2023-05-05T20:55:50.863Z,19.20
2023-05-05T20:58:22.237Z,19.10
2023-05-05T21:00:49.298Z,19.10
2023-05-05T21:03:16.567Z,19.10
2023-05-05T21:05:43.640Z,19.00
2023-05-05T21:08:11.170Z,19.00
2023-05-05T21:10:38.738Z,18.90
2023-05-05T21:13:05.975Z,18.90
2023-05-05T21:15:34.180Z,18.80
2023-05-05T21:18:02.526Z,18.80
2023-05-05T21:20:30.083Z,18.80
2023-05-05T21:22:57.157Z,18.70
2023-05-05T21:25:25.419Z,18.70
2023-05-05T21:27:52.485Z,18.70
2023-05-05T21:30:20.222Z,18.60
2023-05-05T21:32:48.371Z,18.50
2023-05-05T21:35:15.637Z,18.50
2023-05-05T21:37:42.887Z,18.50
2023-05-05T21:40:14.130Z,18.40
2023-05-05T21:42:42.117Z,18.40
2023-05-05T21:45:10.538Z,18.50
2023-05-05T21:47:37.600Z,18.40
2023-05-05T21:50:05.052Z,18.50
2023-05-05T21:52:32.268Z,18.40
2023-05-05T21:54:59.827Z,18.40
2023-05-05T21:57:27.033Z,18.40
2023-05-05T21:59:54.627Z,18.40
2023-05-05T22:02:21.950Z,18.40
2023-05-05T22:04:51.336Z,18.40
2023-05-05T22:07:18.898Z,18.50
2023-05-05T22:09:46.288Z,18.50
2023-05-05T22:12:13.519Z,18.60
2023-05-05T22:14:40.780Z,18.60
2023-05-05T22:17:07.946Z,18.60
2023-05-05T22:19:35.177Z,18.70
2023-05-05T22:22:03.446Z,18.70
2023-05-05T22:24:31.774Z,18.70
2023-05-05T22:26:59.202Z,18.80
2023-05-05T22:29:26.325Z,18.80
2023-05-05T22:31:53.742Z,18.70
2023-05-05T22:34:22.179Z,18.70
2023-05-05T22:36:50.048Z,18.60
2023-05-05T22:39:18.826Z,18.60
2023-05-05T22:41:47.328Z,18.60
2023-05-05T22:44:15.133Z,18.70
2023-05-05T22:46:42.368Z,18.70
2023-05-05T22:49:09.662Z,18.70
2023-05-05T22:51:39.950Z,18.70
2023-05-05T22:54:07.050Z,18.70
2023-05-05T22:56:34.626Z,18.70
2023-05-05T22:59:01.682Z,18.60
2023-05-05T23:01:28.890Z,18.60
2023-05-05T23:03:56.665Z,18.60
2023-05-05T23:06:23.868Z,18.50
2023-05-05T23:08:51.133Z,18.50
2023-05-05T23:11:18.399Z,18.40
2023-05-05T23:13:46.006Z,18.40
2023-05-05T23:16:12.992Z,18.40
2023-05-05T23:18:40.204Z,18.40
2023-05-05T23:21:07.987Z,18.30
2023-05-05T23:23:35.244Z,18.30
2023-05-05T23:26:02.422Z,18.20
2023-05-05T23:28:29.858Z,18.20
2023-05-05T23:30:57.182Z,18.10
2023-05-05T23:33:24.468Z,18.10
2023-05-05T23:35:51.994Z,18.10
2023-05-05T23:38:19.183Z,18.10
2023-05-05T23:40:46.146Z,18.00
2023-05-05T23:43:13.832Z,18.00
2023-05-05T23:45:40.965Z,18.00
2023-05-05T23:48:08.098Z,18.00
2023-05-05T23:50:35.192Z,18.00
2023-05-05T23:53:02.071Z,18.00
2023-05-05T23:55:29.222Z,17.90
2023-05-05T23:57:56.330Z,17.90
